Terminal Aerodrome Forecast
Issued by NWS

Home | Current Version | Previous Version | Text Only | Print | Product List | Glossary On
Versions: 1 2 3 4 5 6 7 8 9 10 11 12 13 14 15 16 17 18 19 20 21 22 23 24 25
000
FTUS41 KILN 222300
TAFLCK
TAF
KLCK 222339Z 2300/2324 VRB03KT P6SM VCSH SCT025 BKN035
     FM230300 00000KT P6SM SCT025 BKN035
     FM230600 00000KT 4SM BR SCT010
     FM230800 00000KT 1SM BR BKN010
     FM231300 00000KT 4SM BR BKN012
     FM231400 07003KT P6SM SCT012
     FM231800 05004KT P6SM SCT040
     FM232100 06003KT P6SM VCSH BKN040=

USA.gov is the U.S. government's official web portal to all federal, state and local government web resources and services.